Blanco, Texas
Current Conditions -  °F | °C
As of 4:15 PM on Tuesday 25 Nov 2014 (Local Time) from KDZB Reporting Station
Clear Clear  
Wind Chill: 64°   Ceiling: Unl
Heat Index: 64°   Visibility: 10mi
Dew Point: 23°   Wind: 9mph
Humidity: 21%   Direction: 250°WSW
Pressure: 30.21"   Gusts: NA
Location:  30.1°N, 98.42°W
Report Text: KDZB 252215Z AUTO 25008KT 230V300 10SM CLR 18/M05 A3021 RMK AO2 T01801049
Loading
Personal Weather Stations






























Interactive Weather Map New forecast layout! Learn more

10-Day Weather Forecast

Advertisements
Track Severe Weather on mobile